sensor_id;sensor_type;location;lat;lon;timestamp;pressure;altitude;pressure_sealevel;temperature;humidity
67740;BME280;54536;50.090;14.420;2024-01-30T00:01:28;101285.81;;;2.91;66.33
67740;BME280;54536;50.090;14.420;2024-01-30T00:03:55;101278.88;;;2.92;65.52
67740;BME280;54536;50.090;14.420;2024-01-30T00:06:21;101278.97;;;2.87;66.03
67740;BME280;54536;50.090;14.420;2024-01-30T00:08:48;101278.88;;;2.92;65.15
67740;BME280;54536;50.090;14.420;2024-01-30T00:11:15;101280.00;;;2.81;65.66
67740;BME280;54536;50.090;14.420;2024-01-30T00:13:42;101284.34;;;2.81;65.81
67740;BME280;54536;50.090;14.420;2024-01-30T00:16:08;101285.25;;;2.46;66.51
67740;BME280;54536;50.090;14.420;2024-01-30T00:18:35;101285.81;;;2.57;66.19
67740;BME280;54536;50.090;14.420;2024-01-30T00:21:01;101285.53;;;2.69;65.17
67740;BME280;54536;50.090;14.420;2024-01-30T00:23:27;101281.78;;;2.79;65.31
67740;BME280;54536;50.090;14.420;2024-01-30T00:25:53;101273.22;;;2.76;65.24
67740;BME280;54536;50.090;14.420;2024-01-30T00:28:19;101268.50;;;2.57;65.87
67740;BME280;54536;50.090;14.420;2024-01-30T00:30:45;101269.47;;;2.53;65.44
67740;BME280;54536;50.090;14.420;2024-01-30T00:33:11;101265.81;;;2.61;65.59
67740;BME280;54536;50.090;14.420;2024-01-30T00:35:37;101270.78;;;2.70;65.49
67740;BME280;54536;50.090;14.420;2024-01-30T00:38:03;101278.72;;;2.64;64.97
67740;BME280;54536;50.090;14.420;2024-01-30T00:40:28;101270.31;;;2.54;65.46
67740;BME280;54536;50.090;14.420;2024-01-30T00:42:55;101263.19;;;2.62;65.10
67740;BME280;54536;50.090;14.420;2024-01-30T00:45:21;101272.75;;;2.60;66.01
67740;BME280;54536;50.090;14.420;2024-01-30T00:47:48;101266.88;;;2.53;65.50
67740;BME280;54536;50.090;14.420;2024-01-30T00:50:13;101264.66;;;2.38;65.84
67740;BME280;54536;50.090;14.420;2024-01-30T00:52:40;101274.25;;;2.34;66.22
67740;BME280;54536;50.090;14.420;2024-01-30T00:55:07;101268.09;;;2.39;65.49
67740;BME280;54536;50.090;14.420;2024-01-30T00:57:33;101269.75;;;2.43;66.21
67740;BME280;54536;50.090;14.420;2024-01-30T00:59:58;101264.41;;;2.49;65.24
67740;BME280;54536;50.090;14.420;2024-01-30T01:02:25;101260.16;;;2.46;66.11
67740;BME280;54536;50.090;14.420;2024-01-30T01:04:50;101263.00;;;2.36;65.76
67740;BME280;54536;50.090;14.420;2024-01-30T01:07:16;101251.59;;;2.41;65.95
67740;BME280;54536;50.090;14.420;2024-01-30T01:09:42;101256.84;;;2.40;65.65
67740;BME280;54536;50.090;14.420;2024-01-30T01:12:08;101259.03;;;2.55;65.88
67740;BME280;54536;50.090;14.420;2024-01-30T01:14:34;101249.63;;;2.51;65.51
67740;BME280;54536;50.090;14.420;2024-01-30T01:17:02;101250.44;;;2.53;65.82
67740;BME280;54536;50.090;14.420;2024-01-30T01:19:28;101249.91;;;2.40;66.28
67740;BME280;54536;50.090;14.420;2024-01-30T01:21:54;101239.66;;;2.36;66.56
67740;BME280;54536;50.090;14.420;2024-01-30T01:24:20;101250.47;;;2.51;65.94
67740;BME280;54536;50.090;14.420;2024-01-30T01:26:46;101242.88;;;2.45;66.75
67740;BME280;54536;50.090;14.420;2024-01-30T01:29:12;101238.53;;;2.44;66.29
67740;BME280;54536;50.090;14.420;2024-01-30T01:31:38;101236.16;;;2.37;66.65
67740;BME280;54536;50.090;14.420;2024-01-30T01:34:10;101240.56;;;2.33;67.05
67740;BME280;54536;50.090;14.420;2024-01-30T01:36:36;101247.44;;;2.36;67.03
67740;BME280;54536;50.090;14.420;2024-01-30T01:39:02;101247.94;;;2.50;66.13
67740;BME280;54536;50.090;14.420;2024-01-30T01:41:32;101251.09;;;2.61;65.76
67740;BME280;54536;50.090;14.420;2024-01-30T01:43:59;101246.06;;;2.55;65.83
67740;BME280;54536;50.090;14.420;2024-01-30T01:46:27;101254.72;;;2.55;66.22
67740;BME280;54536;50.090;14.420;2024-01-30T01:48:56;101248.78;;;2.50;66.41
67740;BME280;54536;50.090;14.420;2024-01-30T01:51:24;101249.31;;;2.63;65.66
67740;BME280;54536;50.090;14.420;2024-01-30T01:53:53;101245.34;;;2.48;65.83
67740;BME280;54536;50.090;14.420;2024-01-30T01:56:21;101243.81;;;2.75;65.34
67740;BME280;54536;50.090;14.420;2024-01-30T01:58:49;101243.88;;;2.72;65.28
67740;BME280;54536;50.090;14.420;2024-01-30T02:01:20;101247.81;;;2.54;66.21
67740;BME280;54536;50.090;14.420;2024-01-30T02:03:46;101241.16;;;2.44;66.80
67740;BME280;54536;50.090;14.420;2024-01-30T02:06:16;101241.81;;;2.52;66.46
67740;BME280;54536;50.090;14.420;2024-01-30T02:08:43;101242.66;;;2.53;65.90
67740;BME280;54536;50.090;14.420;2024-01-30T02:11:10;101242.94;;;2.42;66.18
67740;BME280;54536;50.090;14.420;2024-01-30T02:13:37;101244.34;;;2.54;65.40
67740;BME280;54536;50.090;14.420;2024-01-30T02:16:04;101241.75;;;2.55;64.95
67740;BME280;54536;50.090;14.420;2024-01-30T02:18:30;101234.88;;;2.53;64.76
67740;BME280;54536;50.090;14.420;2024-01-30T02:20:59;101241.78;;;2.18;65.83
67740;BME280;54536;50.090;14.420;2024-01-30T02:23:27;101242.13;;;2.40;65.45
67740;BME280;54536;50.090;14.420;2024-01-30T02:25:53;101242.03;;;2.43;65.53
67740;BME280;54536;50.090;14.420;2024-01-30T02:28:20;101243.66;;;2.49;66.04
67740;BME280;54536;50.090;14.420;2024-01-30T02:30:46;101250.53;;;2.50;64.78
67740;BME280;54536;50.090;14.420;2024-01-30T02:33:13;101251.28;;;2.53;64.91
67740;BME280;54536;50.090;14.420;2024-01-30T02:35:39;101248.94;;;2.44;65.00
67740;BME280;54536;50.090;14.420;2024-01-30T02:38:05;101247.84;;;2.53;64.39
67740;BME280;54536;50.090;14.420;2024-01-30T02:40:32;101246.75;;;2.27;64.81
67740;BME280;54536;50.090;14.420;2024-01-30T02:42:59;101246.88;;;2.23;64.66
67740;BME280;54536;50.090;14.420;2024-01-30T02:45:25;101241.56;;;2.29;64.90
67740;BME280;54536;50.090;14.420;2024-01-30T02:47:51;101238.00;;;2.31;63.91
67740;BME280;54536;50.090;14.420;2024-01-30T02:50:18;101236.25;;;2.32;64.13
67740;BME280;54536;50.090;14.420;2024-01-30T02:52:44;101238.78;;;2.35;64.22
67740;BME280;54536;50.090;14.420;2024-01-30T02:55:11;101237.84;;;2.38;63.72
67740;BME280;54536;50.090;14.420;2024-01-30T02:57:38;101234.41;;;2.37;64.08
67740;BME280;54536;50.090;14.420;2024-01-30T03:00:05;101236.31;;;2.30;63.65
67740;BME280;54536;50.090;14.420;2024-01-30T03:02:32;101236.16;;;2.37;63.74
67740;BME280;54536;50.090;14.420;2024-01-30T03:04:59;101234.41;;;2.37;63.72
67740;BME280;54536;50.090;14.420;2024-01-30T03:07:26;101228.72;;;2.23;64.17
67740;BME280;54536;50.090;14.420;2024-01-30T03:09:52;101237.34;;;2.23;64.63
67740;BME280;54536;50.090;14.420;2024-01-30T03:12:18;101233.75;;;2.29;63.89
67740;BME280;54536;50.090;14.420;2024-01-30T03:14:44;101236.50;;;2.23;64.42
67740;BME280;54536;50.090;14.420;2024-01-30T03:17:10;101230.13;;;2.34;63.01
67740;BME280;54536;50.090;14.420;2024-01-30T03:19:36;101228.13;;;2.11;64.27
67740;BME280;54536;50.090;14.420;2024-01-30T03:22:02;101230.75;;;2.10;64.18
67740;BME280;54536;50.090;14.420;2024-01-30T03:24:28;101225.72;;;2.04;63.86
67740;BME280;54536;50.090;14.420;2024-01-30T03:26:54;101217.66;;;2.15;64.32
67740;BME280;54536;50.090;14.420;2024-01-30T03:29:20;101223.13;;;2.04;64.07
67740;BME280;54536;50.090;14.420;2024-01-30T03:31:47;101220.63;;;1.99;64.59
67740;BME280;54536;50.090;14.420;2024-01-30T03:34:13;101217.16;;;2.00;64.47
67740;BME280;54536;50.090;14.420;2024-01-30T03:36:39;101215.34;;;2.02;64.18
67740;BME280;54536;50.090;14.420;2024-01-30T03:39:05;101213.41;;;2.12;64.62
67740;BME280;54536;50.090;14.420;2024-01-30T03:41:31;101213.72;;;2.00;64.70
67740;BME280;54536;50.090;14.420;2024-01-30T03:43:58;101218.19;;;1.93;65.53
67740;BME280;54536;50.090;14.420;2024-01-30T03:46:24;101220.94;;;1.85;65.62
67740;BME280;54536;50.090;14.420;2024-01-30T03:48:50;101219.84;;;1.96;65.36
67740;BME280;54536;50.090;14.420;2024-01-30T03:51:16;101218.16;;;1.95;65.38
67740;BME280;54536;50.090;14.420;2024-01-30T03:53:43;101212.81;;;2.01;64.55
67740;BME280;54536;50.090;14.420;2024-01-30T03:56:09;101209.41;;;1.99;64.75
67740;BME280;54536;50.090;14.420;2024-01-30T03:58:35;101210.25;;;1.99;64.69
67740;BME280;54536;50.090;14.420;2024-01-30T04:01:02;101204.84;;;2.08;64.55
67740;BME280;54536;50.090;14.420;2024-01-30T04:03:29;101199.84;;;2.01;65.55
67740;BME280;54536;50.090;14.420;2024-01-30T04:05:55;101198.28;;;1.94;66.24
67740;BME280;54536;50.090;14.420;2024-01-30T04:08:21;101199.16;;;1.93;65.85
67740;BME280;54536;50.090;14.420;2024-01-30T04:10:47;101190.75;;;1.83;66.29
67740;BME280;54536;50.090;14.420;2024-01-30T04:13:13;101192.97;;;2.00;65.54
67740;BME280;54536;50.090;14.420;2024-01-30T04:15:39;101199.50;;;1.79;66.66
67740;BME280;54536;50.090;14.420;2024-01-30T04:18:06;101203.81;;;1.80;66.55
67740;BME280;54536;50.090;14.420;2024-01-30T04:20:32;101201.03;;;1.87;66.07
67740;BME280;54536;50.090;14.420;2024-01-30T04:22:58;101193.53;;;2.11;65.64
67740;BME280;54536;50.090;14.420;2024-01-30T04:25:24;101198.72;;;2.11;65.58
67740;BME280;54536;50.090;14.420;2024-01-30T04:27:50;101194.44;;;2.10;65.80
67740;BME280;54536;50.090;14.420;2024-01-30T04:30:16;101196.97;;;2.13;65.92
67740;BME280;54536;50.090;14.420;2024-01-30T04:32:43;101196.97;;;2.13;65.64
67740;BME280;54536;50.090;14.420;2024-01-30T04:35:09;101202.06;;;2.16;64.98
67740;BME280;54536;50.090;14.420;2024-01-30T04:37:35;101196.59;;;2.27;64.99
67740;BME280;54536;50.090;14.420;2024-01-30T04:40:01;101195.69;;;2.28;65.12
67740;BME280;54536;50.090;14.420;2024-01-30T04:42:28;101204.09;;;2.39;64.50
67740;BME280;54536;50.090;14.420;2024-01-30T04:44:55;101210.00;;;2.44;64.60
67740;BME280;54536;50.090;14.420;2024-01-30T04:47:21;101201.88;;;2.56;64.20
67740;BME280;54536;50.090;14.420;2024-01-30T04:49:47;101207.22;;;2.52;63.40
67740;BME280;54536;50.090;14.420;2024-01-30T04:52:13;101211.19;;;2.65;63.46
67740;BME280;54536;50.090;14.420;2024-01-30T04:54:39;101200.28;;;2.52;63.57
67740;BME280;54536;50.090;14.420;2024-01-30T04:57:05;101201.41;;;2.42;63.64
67740;BME280;54536;50.090;14.420;2024-01-30T04:59:35;101207.25;;;2.16;65.31
67740;BME280;54536;50.090;14.420;2024-01-30T05:02:02;101213.03;;;2.27;64.82
67740;BME280;54536;50.090;14.420;2024-01-30T05:04:28;101211.81;;;2.41;64.34
67740;BME280;54536;50.090;14.420;2024-01-30T05:06:54;101213.88;;;2.28;64.87
67740;BME280;54536;50.090;14.420;2024-01-30T05:09:20;101212.41;;;2.18;65.15
67740;BME280;54536;50.090;14.420;2024-01-30T05:11:47;101211.25;;;2.29;65.01
67740;BME280;54536;50.090;14.420;2024-01-30T05:14:13;101217.28;;;2.30;65.34
67740;BME280;54536;50.090;14.420;2024-01-30T05:16:41;101220.69;;;2.32;65.33
67740;BME280;54536;50.090;14.420;2024-01-30T05:19:08;101220.06;;;2.22;64.76
67740;BME280;54536;50.090;14.420;2024-01-30T05:21:34;101219.22;;;2.22;65.04
67740;BME280;54536;50.090;14.420;2024-01-30T05:24:00;101219.72;;;2.36;64.12
67740;BME280;54536;50.090;14.420;2024-01-30T05:26:27;101217.94;;;2.38;63.94
67740;BME280;54536;50.090;14.420;2024-01-30T05:28:52;101221.47;;;2.36;64.40
67740;BME280;54536;50.090;14.420;2024-01-30T05:31:19;101231.75;;;2.39;63.43
67740;BME280;54536;50.090;14.420;2024-01-30T05:33:44;101226.78;;;2.31;63.42
67740;BME280;54536;50.090;14.420;2024-01-30T05:36:14;101221.94;;;2.16;63.80
67740;BME280;54536;50.090;14.420;2024-01-30T05:38:39;101218.25;;;2.26;63.10
67740;BME280;54536;50.090;14.420;2024-01-30T05:41:06;101219.25;;;2.20;62.77
67740;BME280;54536;50.090;14.420;2024-01-30T05:43:32;101216.75;;;2.17;63.58
67740;BME280;54536;50.090;14.420;2024-01-30T05:45:58;101213.59;;;2.04;63.55
67740;BME280;54536;50.090;14.420;2024-01-30T05:48:24;101217.88;;;2.05;63.32
67740;BME280;54536;50.090;14.420;2024-01-30T05:50:50;101222.94;;;2.11;63.34
67740;BME280;54536;50.090;14.420;2024-01-30T05:53:16;101225.59;;;2.08;63.22
67740;BME280;54536;50.090;14.420;2024-01-30T05:55:42;101216.88;;;2.13;63.61
67740;BME280;54536;50.090;14.420;2024-01-30T05:58:08;101214.78;;;2.25;62.52
67740;BME280;54536;50.090;14.420;2024-01-30T06:00:34;101209.84;;;2.16;62.70
67740;BME280;54536;50.090;14.420;2024-01-30T06:03:00;101211.47;;;2.20;62.88
67740;BME280;54536;50.090;14.420;2024-01-30T06:05:26;101222.75;;;2.19;63.68
67740;BME280;54536;50.090;14.420;2024-01-30T06:07:52;101214.16;;;2.16;63.08
67740;BME280;54536;50.090;14.420;2024-01-30T06:10:18;101210.00;;;2.10;63.16
67740;BME280;54536;50.090;14.420;2024-01-30T06:12:44;101210.56;;;2.23;63.07
67740;BME280;54536;50.090;14.420;2024-01-30T06:15:10;101210.72;;;2.15;63.40
67740;BME280;54536;50.090;14.420;2024-01-30T06:17:38;101211.28;;;2.28;63.45
67740;BME280;54536;50.090;14.420;2024-01-30T06:20:06;101212.25;;;2.24;63.14
67740;BME280;54536;50.090;14.420;2024-01-30T06:22:32;101214.72;;;1.93;64.31
67740;BME280;54536;50.090;14.420;2024-01-30T06:24:58;101209.69;;;2.22;63.96
67740;BME280;54536;50.090;14.420;2024-01-30T06:27:24;101212.66;;;2.07;64.43
67740;BME280;54536;50.090;14.420;2024-01-30T06:29:51;101217.72;;;2.11;63.51
67740;BME280;54536;50.090;14.420;2024-01-30T06:32:16;101219.56;;;2.08;63.11
67740;BME280;54536;50.090;14.420;2024-01-30T06:34:43;101224.72;;;2.09;63.36
67740;BME280;54536;50.090;14.420;2024-01-30T06:37:10;101221.09;;;2.17;62.94
67740;BME280;54536;50.090;14.420;2024-01-30T06:39:36;101227.19;;;2.14;62.75
67740;BME280;54536;50.090;14.420;2024-01-30T06:42:02;101236.34;;;1.93;63.69
67740;BME280;54536;50.090;14.420;2024-01-30T06:44:28;101230.97;;;2.01;63.32
67740;BME280;54536;50.090;14.420;2024-01-30T06:46:54;101244.28;;;1.85;64.09
67740;BME280;54536;50.090;14.420;2024-01-30T06:49:20;101234.53;;;1.97;63.67
67740;BME280;54536;50.090;14.420;2024-01-30T06:51:47;101243.09;;;2.00;62.99
67740;BME280;54536;50.090;14.420;2024-01-30T06:54:14;101241.13;;;2.10;63.13
67740;BME280;54536;50.090;14.420;2024-01-30T06:56:40;101243.19;;;1.96;62.94
67740;BME280;54536;50.090;14.420;2024-01-30T06:59:07;101235.03;;;2.13;63.43
67740;BME280;54536;50.090;14.420;2024-01-30T07:01:34;101242.47;;;1.89;63.57
67740;BME280;54536;50.090;14.420;2024-01-30T07:04:00;101247.25;;;2.07;63.26
67740;BME280;54536;50.090;14.420;2024-01-30T07:06:26;101246.41;;;2.07;63.77
67740;BME280;54536;50.090;14.420;2024-01-30T07:08:52;101249.09;;;2.02;63.69
67740;BME280;54536;50.090;14.420;2024-01-30T07:11:19;101251.94;;;1.92;63.97
67740;BME280;54536;50.090;14.420;2024-01-30T07:13:48;101254.59;;;1.88;63.92
67740;BME280;54536;50.090;14.420;2024-01-30T07:16:15;101249.16;;;1.99;63.63
67740;BME280;54536;50.090;14.420;2024-01-30T07:18:41;101253.81;;;1.86;64.12
67740;BME280;54536;50.090;14.420;2024-01-30T07:21:07;101251.03;;;1.93;63.56
67740;BME280;54536;50.090;14.420;2024-01-30T07:23:34;101262.59;;;1.79;64.11
67740;BME280;54536;50.090;14.420;2024-01-30T07:26:03;101253.47;;;2.00;63.92
67740;BME280;54536;50.090;14.420;2024-01-30T07:28:29;101252.50;;;2.04;63.65
67740;BME280;54536;50.090;14.420;2024-01-30T07:30:56;101250.81;;;2.03;64.40
67740;BME280;54536;50.090;14.420;2024-01-30T07:33:22;101257.97;;;1.94;64.70
67740;BME280;54536;50.090;14.420;2024-01-30T07:35:48;101261.59;;;1.85;64.53
67740;BME280;54536;50.090;14.420;2024-01-30T07:38:14;101261.47;;;1.91;64.68
67740;BME280;54536;50.090;14.420;2024-01-30T07:40:40;101268.78;;;1.74;64.39
67740;BME280;54536;50.090;14.420;2024-01-30T07:43:07;101275.59;;;1.78;64.82
67740;BME280;54536;50.090;14.420;2024-01-30T07:45:33;101268.03;;;2.06;63.97
67740;BME280;54536;50.090;14.420;2024-01-30T07:48:00;101272.28;;;2.10;63.04
67740;BME280;54536;50.090;14.420;2024-01-30T07:50:26;101277.75;;;1.98;63.80
67740;BME280;54536;50.090;14.420;2024-01-30T07:52:52;101276.69;;;2.06;63.72
67740;BME280;54536;50.090;14.420;2024-01-30T07:55:21;101280.53;;;1.90;64.07
67740;BME280;54536;50.090;14.420;2024-01-30T07:57:52;101283.91;;;1.92;64.19
67740;BME280;54536;50.090;14.420;2024-01-30T08:00:20;101280.34;;;1.98;64.30
67740;BME280;54536;50.090;14.420;2024-01-30T08:02:47;101282.09;;;1.96;64.42
67740;BME280;54536;50.090;14.420;2024-01-30T08:05:13;101273.53;;;1.94;64.87
67740;BME280;54536;50.090;14.420;2024-01-30T08:07:41;101277.28;;;1.80;65.12
67740;BME280;54536;50.090;14.420;2024-01-30T08:10:12;101276.84;;;1.99;65.01
67740;BME280;54536;50.090;14.420;2024-01-30T08:12:39;101272.75;;;1.90;65.45
67740;BME280;54536;50.090;14.420;2024-01-30T08:15:05;101264.50;;;2.08;64.21
67740;BME280;54536;50.090;14.420;2024-01-30T08:17:31;101268.47;;;1.87;64.93
67740;BME280;54536;50.090;14.420;2024-01-30T08:19:58;101263.88;;;1.99;64.34
67740;BME280;54536;50.090;14.420;2024-01-30T08:22:24;101264.66;;;2.02;64.63
67740;BME280;54536;50.090;14.420;2024-01-30T08:24:50;101264.31;;;2.18;64.31
67740;BME280;54536;50.090;14.420;2024-01-30T08:27:16;101262.06;;;2.02;64.32
67740;BME280;54536;50.090;14.420;2024-01-30T08:29:43;101262.75;;;2.09;64.00
67740;BME280;54536;50.090;14.420;2024-01-30T08:32:09;101259.38;;;2.07;64.01
67740;BME280;54536;50.090;14.420;2024-01-30T08:34:35;101259.22;;;2.13;63.98
67740;BME280;54536;50.090;14.420;2024-01-30T08:37:01;101258.22;;;2.19;64.07
67740;BME280;54536;50.090;14.420;2024-01-30T08:39:27;101251.75;;;2.35;63.58
67740;BME280;54536;50.090;14.420;2024-01-30T08:41:53;101255.09;;;2.40;63.26
67740;BME280;54536;50.090;14.420;2024-01-30T08:44:19;101259.16;;;2.50;63.00
67740;BME280;54536;50.090;14.420;2024-01-30T08:46:45;101260.00;;;2.51;62.76
67740;BME280;54536;50.090;14.420;2024-01-30T08:49:13;101255.50;;;2.57;62.56
67740;BME280;54536;50.090;14.420;2024-01-30T08:51:40;101253.75;;;2.60;62.19
67740;BME280;54536;50.090;14.420;2024-01-30T08:54:05;101249.09;;;2.38;63.17
67740;BME280;54536;50.090;14.420;2024-01-30T08:56:31;101252.22;;;2.51;62.99
67740;BME280;54536;50.090;14.420;2024-01-30T08:58:57;101248.97;;;2.43;65.06
67740;BME280;54536;50.090;14.420;2024-01-30T09:01:25;101246.84;;;2.58;66.51
67740;BME280;54536;50.090;14.420;2024-01-30T09:03:52;101247.66;;;2.61;65.44
67740;BME280;54536;50.090;14.420;2024-01-30T09:06:18;101251.28;;;2.53;64.99
67740;BME280;54536;50.090;14.420;2024-01-30T09:08:44;101245.91;;;2.61;63.85
67740;BME280;54536;50.090;14.420;2024-01-30T09:11:12;101245.66;;;2.70;63.47
67740;BME280;54536;50.090;14.420;2024-01-30T09:13:38;101242.28;;;2.67;63.40
67740;BME280;54536;50.090;14.420;2024-01-30T09:16:05;101239.47;;;2.74;62.95
67740;BME280;54536;50.090;14.420;2024-01-30T09:18:32;101235.97;;;2.77;63.46
67740;BME280;54536;50.090;14.420;2024-01-30T09:20:58;101238.78;;;2.68;63.10
67740;BME280;54536;50.090;14.420;2024-01-30T09:23:26;101236.28;;;2.65;64.17
67740;BME280;54536;50.090;14.420;2024-01-30T09:25:53;101243.75;;;2.77;63.24
67740;BME280;54536;50.090;14.420;2024-01-30T09:28:19;101247.97;;;2.81;63.57
67740;BME280;54536;50.090;14.420;2024-01-30T09:30:45;101247.09;;;2.82;63.42
67740;BME280;54536;50.090;14.420;2024-01-30T09:33:11;101252.38;;;2.79;63.68
67740;BME280;54536;50.090;14.420;2024-01-30T09:35:37;101248.75;;;2.85;63.60
67740;BME280;54536;50.090;14.420;2024-01-30T09:38:04;101253.75;;;2.92;63.35
67740;BME280;54536;50.090;14.420;2024-01-30T09:40:30;101255.41;;;2.95;63.29
67740;BME280;54536;50.090;14.420;2024-01-30T09:42:56;101257.88;;;2.99;63.29
67740;BME280;54536;50.090;14.420;2024-01-30T09:45:26;101248.75;;;3.16;63.06
67740;BME280;54536;50.090;14.420;2024-01-30T09:47:53;101252.94;;;3.21;63.02
67740;BME280;54536;50.090;14.420;2024-01-30T09:50:19;101249.56;;;3.18;63.22
67740;BME280;54536;50.090;14.420;2024-01-30T09:52:47;101241.59;;;3.24;63.63
67740;BME280;54536;50.090;14.420;2024-01-30T09:55:13;101239.69;;;3.31;62.93
67740;BME280;54536;50.090;14.420;2024-01-30T09:57:41;101241.28;;;3.35;62.80
67740;BME280;54536;50.090;14.420;2024-01-30T10:00:07;101236.75;;;3.69;62.25
67740;BME280;54536;50.090;14.420;2024-01-30T10:02:35;101238.97;;;3.83;62.13
67740;BME280;54536;50.090;14.420;2024-01-30T10:05:02;101241.19;;;3.67;62.30
67740;BME280;54536;50.090;14.420;2024-01-30T10:07:28;101230.97;;;3.89;62.00
67740;BME280;54536;50.090;14.420;2024-01-30T10:09:55;101228.00;;;4.00;61.75
67740;BME280;54536;50.090;14.420;2024-01-30T10:12:26;101229.34;;;3.85;62.33
67740;BME280;54536;50.090;14.420;2024-01-30T10:14:52;101231.84;;;3.88;62.37
67740;BME280;54536;50.090;14.420;2024-01-30T10:17:19;101222.28;;;3.89;62.31
67740;BME280;54536;50.090;14.420;2024-01-30T10:19:46;101220.69;;;3.85;62.36
67740;BME280;54536;50.090;14.420;2024-01-30T10:22:13;101225.03;;;3.84;62.16
67740;BME280;54536;50.090;14.420;2024-01-30T10:24:39;101214.06;;;4.03;61.70
67740;BME280;54536;50.090;14.420;2024-01-30T10:27:05;101205.81;;;4.15;61.13
67740;BME280;54536;50.090;14.420;2024-01-30T10:29:32;101211.03;;;4.15;61.24
67740;BME280;54536;50.090;14.420;2024-01-30T10:31:59;101218.19;;;4.08;61.54
67740;BME280;54536;50.090;14.420;2024-01-30T10:34:26;101212.50;;;3.97;61.74
67740;BME280;54536;50.090;14.420;2024-01-30T10:39:32;101212.59;;;3.94;61.85
67740;BME280;54536;50.090;14.420;2024-01-30T10:42:04;101218.13;;;3.83;62.35
67740;BME280;54536;50.090;14.420;2024-01-30T10:45:04;101214.81;;;3.78;62.50
67740;BME280;54536;50.090;14.420;2024-01-30T10:47:34;101207.84;;;4.07;62.11
67740;BME280;54536;50.090;14.420;2024-01-30T10:50:02;101198.47;;;4.01;62.20
67740;BME280;54536;50.090;14.420;2024-01-30T10:52:32;101204.28;;;4.09;62.43
67740;BME280;54536;50.090;14.420;2024-01-30T10:54:59;101200.22;;;4.01;61.91
67740;BME280;54536;50.090;14.420;2024-01-30T10:57:27;101205.81;;;3.88;62.92
67740;BME280;54536;50.090;14.420;2024-01-30T10:59:57;101200.28;;;3.99;62.50
67740;BME280;54536;50.090;14.420;2024-01-30T11:02:25;101198.19;;;4.10;62.36
67740;BME280;54536;50.090;14.420;2024-01-30T11:04:57;101192.69;;;4.18;62.18
67740;BME280;54536;50.090;14.420;2024-01-30T11:07:26;101195.50;;;4.12;62.16
67740;BME280;54536;50.090;14.420;2024-01-30T11:12:28;101192.50;;;4.24;62.11
67740;BME280;54536;50.090;14.420;2024-01-30T11:15:05;101187.16;;;4.29;61.96
67740;BME280;54536;50.090;14.420;2024-01-30T11:17:51;101183.75;;;4.27;61.85
67740;BME280;54536;50.090;14.420;2024-01-30T11:20:30;101182.56;;;4.10;61.89
67740;BME280;54536;50.090;14.420;2024-01-30T11:23:02;101177.78;;;4.23;62.09
67740;BME280;54536;50.090;14.420;2024-01-30T11:25:32;101173.97;;;4.33;62.21
67740;BME280;54536;50.090;14.420;2024-01-30T11:27:59;101181.34;;;4.20;62.55
67740;BME280;54536;50.090;14.420;2024-01-30T11:30:27;101173.44;;;4.23;62.35
67740;BME280;54536;50.090;14.420;2024-01-30T11:35:35;101173.66;;;4.42;62.05
67740;BME280;54536;50.090;14.420;2024-01-30T11:38:03;101175.56;;;4.62;61.20
67740;BME280;54536;50.090;14.420;2024-01-30T11:40:30;101169.81;;;4.53;60.94
67740;BME280;54536;50.090;14.420;2024-01-30T11:42:59;101165.81;;;4.67;60.78
67740;BME280;54536;50.090;14.420;2024-01-30T11:45:29;101164.34;;;4.60;61.17
67740;BME280;54536;50.090;14.420;2024-01-30T11:47:56;101170.34;;;4.62;61.12
67740;BME280;54536;50.090;14.420;2024-01-30T11:50:23;101161.06;;;4.55;61.40
67740;BME280;54536;50.090;14.420;2024-01-30T11:52:50;101158.28;;;4.60;61.38
67740;BME280;54536;50.090;14.420;2024-01-30T11:55:17;101156.91;;;4.50;61.11
67740;BME280;54536;50.090;14.420;2024-01-30T11:57:45;101154.56;;;4.42;60.89
67740;BME280;54536;50.090;14.420;2024-01-30T12:00:15;101157.31;;;4.37;62.13
67740;BME280;54536;50.090;14.420;2024-01-30T12:02:42;101144.09;;;4.43;62.04
67740;BME280;54536;50.090;14.420;2024-01-30T12:05:09;101144.50;;;4.56;61.33
67740;BME280;54536;50.090;14.420;2024-01-30T12:07:38;101144.84;;;4.47;61.51
67740;BME280;54536;50.090;14.420;2024-01-30T12:10:03;101138.78;;;4.46;61.90
67740;BME280;54536;50.090;14.420;2024-01-30T12:12:31;101136.06;;;4.50;61.49
67740;BME280;54536;50.090;14.420;2024-01-30T12:14:58;101141.91;;;4.56;61.19
67740;BME280;54536;50.090;14.420;2024-01-30T12:17:28;101133.03;;;4.37;62.16
67740;BME280;54536;50.090;14.420;2024-01-30T12:20:09;101125.97;;;4.40;61.63
67740;BME280;54536;50.090;14.420;2024-01-30T12:22:37;101126.34;;;4.55;61.37
67740;BME280;54536;50.090;14.420;2024-01-30T12:25:10;101126.25;;;4.58;61.23
67740;BME280;54536;50.090;14.420;2024-01-30T12:27:38;101121.59;;;4.66;61.11
67740;BME280;54536;50.090;14.420;2024-01-30T12:30:08;101126.34;;;4.78;60.82
67740;BME280;54536;50.090;14.420;2024-01-30T12:32:36;101120.16;;;4.57;60.93
67740;BME280;54536;50.090;14.420;2024-01-30T12:35:02;101115.16;;;4.51;61.87
67740;BME280;54536;50.090;14.420;2024-01-30T12:37:32;101113.47;;;4.50;61.63
67740;BME280;54536;50.090;14.420;2024-01-30T12:39:58;101109.19;;;4.49;61.71
67740;BME280;54536;50.090;14.420;2024-01-30T12:42:27;101113.56;;;4.47;61.35
67740;BME280;54536;50.090;14.420;2024-01-30T12:44:53;101110.22;;;4.43;61.85
67740;BME280;54536;50.090;14.420;2024-01-30T12:47:21;101112.16;;;4.38;62.02
67740;BME280;54536;50.090;14.420;2024-01-30T12:49:47;101110.94;;;4.49;61.32
67740;BME280;54536;50.090;14.420;2024-01-30T12:52:17;101114.84;;;4.60;60.90
67740;BME280;54536;50.090;14.420;2024-01-30T12:54:42;101111.22;;;4.64;61.42
67740;BME280;54536;50.090;14.420;2024-01-30T12:57:09;101109.72;;;4.57;61.56